Calico Basin, Nevada
Current Conditions -  °F | °C
As of 2:56 AM on Wednesday 22 Oct 2014 (Local Time) from KHND Reporting Station
Clear Clear  
Wind Chill: 17°   Ceiling: Unl
Heat Index: 17°   Visibility: 10mi
Dew Point: -4°   Wind: 9mph
Humidity: 24%   Direction: 200°SSW
Pressure: 29.93"   Gusts: NA
Location:  35.8437°N, 115.134°W
Report Text: KHND 220956Z AUTO 20008KT 10SM CLR 17/M04 A2993 RMK AO2 T01721038 SLP115
Loading
Personal Weather Stations






























Interactive Weather Map
Tropical Storm Tracking
New forecast layout! Learn more

10-Day Weather Forecast

Advertisements
Track Severe Weather on mobile